Time;durP1;ratioP1;P1;durP2;ratioP2;P2;SDS_P1;SDS_P2;PMS_P1;PMS_P2;Temp;Humidity;BMP_temperature;BMP_pressure;BME280_temperature;BME280_humidity;BME280_pressure;Samples;Min_cycle;Max_cycle;Signal;HPM_P1;HPM_P2
2023/10/20 00:00:18;;;;;;;6.10;4.45;;;;;;;;;;5099094;28;20059;-60
2023/10/20 00:02:45;;;;;;;6.15;4.95;;;;;;;;;;5112557;28;20420;-60
2023/10/20 00:05:13;;;;;;;6.65;5.40;;;;;;;;;;5112995;28;20047;-60
2023/10/20 00:07:40;;;;;;;5.32;4.28;;;;;;;;;;5093970;28;20048;-60
2023/10/20 00:10:09;;;;;;;5.15;4.03;;;;;;;;;;5074214;28;20052;-60
2023/10/20 00:12:36;;;;;;;5.63;4.80;;;;;;;;;;5075045;28;20056;-60
2023/10/20 00:15:04;;;;;;;9.25;4.93;;;;;;;;;;5092332;28;20061;-60
2023/10/20 00:17:31;;;;;;;5.10;4.60;;;;;;;;;;5088913;28;20063;-59
2023/10/20 00:19:58;;;;;;;6.38;4.90;;;;;;;;;;5091165;28;20071;-59
2023/10/20 00:22:25;;;;;;;6.72;5.03;;;;;;;;;;5089942;28;20412;-60
2023/10/20 00:24:52;;;;;;;6.07;4.40;;;;;;;;;;5082735;28;20488;-60
2023/10/20 00:27:19;;;;;;;6.07;4.90;;;;;;;;;;5072348;28;20482;-61
2023/10/20 00:29:46;;;;;;;5.10;4.25;;;;;;;;;;5074560;28;20075;-60
2023/10/20 00:32:14;;;;;;;6.10;4.53;;;;;;;;;;5091945;28;20413;-60
2023/10/20 00:34:41;;;;;;;6.38;4.68;;;;;;;;;;5094055;28;21300;-60
2023/10/20 00:37:08;;;;;;;5.18;4.18;;;;;;;;;;5113024;28;20052;-60
2023/10/20 00:39:35;;;;;;;5.22;4.20;;;;;;;;;;5090490;28;20055;-60
2023/10/20 00:42:02;;;;;;;8.60;5.47;;;;;;;;;;5079030;28;20060;-60
2023/10/20 00:44:29;;;;;;;5.88;4.70;;;;;;;;;;5094856;28;20059;-60
2023/10/20 00:46:56;;;;;;;6.43;5.20;;;;;;;;;;5095870;28;20412;-60
2023/10/20 00:49:24;;;;;;;9.02;4.93;;;;;;;;;;5091056;28;20063;-61
2023/10/20 00:51:51;;;;;;;7.93;5.07;;;;;;;;;;5075853;28;20049;-61
2023/10/20 00:54:20;;;;;;;6.28;5.25;;;;;;;;;;5077046;28;20052;-60
2023/10/20 00:56:47;;;;;;;6.22;5.10;;;;;;;;;;5075568;28;20124;-60
2023/10/20 00:59:14;;;;;;;6.07;5.47;;;;;;;;;;5076141;28;20052;-60
2023/10/20 01:01:41;;;;;;;7.82;5.40;;;;;;;;;;5074543;28;20045;-60
2023/10/20 01:04:08;;;;;;;6.72;5.35;;;;;;;;;;5075631;28;20056;-60
2023/10/20 01:06:37;;;;;;;7.35;5.40;;;;;;;;;;5082428;28;20059;-60
2023/10/20 01:09:04;;;;;;;6.05;4.80;;;;;;;;;;5076858;28;20075;-60
2023/10/20 01:11:31;;;;;;;5.65;4.57;;;;;;;;;;5079895;28;20048;-60
2023/10/20 01:13:58;;;;;;;5.53;4.53;;;;;;;;;;5075707;28;20057;-60
2023/10/20 01:16:24;;;;;;;7.88;5.68;;;;;;;;;;5089406;28;20058;-60
2023/10/20 01:18:51;;;;;;;5.20;4.70;;;;;;;;;;5115807;28;20063;-59
2023/10/20 01:21:18;;;;;;;5.60;4.32;;;;;;;;;;5114432;28;20039;-59
2023/10/20 01:23:46;;;;;;;6.65;5.10;;;;;;;;;;5115708;28;20059;-60
2023/10/20 01:26:14;;;;;;;5.47;4.40;;;;;;;;;;5082725;28;20053;-60
2023/10/20 01:28:41;;;;;;;6.78;5.22;;;;;;;;;;5075670;28;20458;-59
2023/10/20 01:31:08;;;;;;;10.10;5.35;;;;;;;;;;5074256;28;20409;-60
2023/10/20 01:33:34;;;;;;;6.10;5.00;;;;;;;;;;5075415;28;20059;-60
2023/10/20 01:36:01;;;;;;;5.55;5.05;;;;;;;;;;5078000;28;20044;-60
2023/10/20 01:38:28;;;;;;;5.65;5.05;;;;;;;;;;5075351;28;20049;-59
2023/10/20 01:40:55;;;;;;;7.68;5.53;;;;;;;;;;5082652;28;20044;-60
2023/10/20 01:43:23;;;;;;;7.13;5.85;;;;;;;;;;5074749;28;20379;-60
2023/10/20 01:45:50;;;;;;;6.38;5.43;;;;;;;;;;5074946;28;20489;-60
2023/10/20 01:48:17;;;;;;;6.25;5.55;;;;;;;;;;5092928;28;20505;-60
2023/10/20 01:50:44;;;;;;;7.63;6.30;;;;;;;;;;5095127;28;20457;-60
2023/10/20 01:53:11;;;;;;;6.40;5.47;;;;;;;;;;5075916;28;20059;-60
2023/10/20 01:55:39;;;;;;;8.45;6.18;;;;;;;;;;5075111;28;20067;-60
2023/10/20 01:58:06;;;;;;;6.10;5.50;;;;;;;;;;5093698;28;20419;-59
2023/10/20 02:00:36;;;;;;;7.22;6.05;;;;;;;;;;5095096;28;20052;-60
2023/10/20 02:03:03;;;;;;;6.07;5.38;;;;;;;;;;5109364;28;20052;-60
2023/10/20 02:05:30;;;;;;;7.55;6.22;;;;;;;;;;5113108;28;20059;-59
2023/10/20 02:07:57;;;;;;;7.07;6.00;;;;;;;;;;5075434;28;20232;-60
2023/10/20 02:10:25;;;;;;;6.65;5.68;;;;;;;;;;5074137;28;20056;-61
2023/10/20 02:12:51;;;;;;;7.50;6.00;;;;;;;;;;5078066;28;20052;-60
2023/10/20 02:15:18;;;;;;;10.75;6.28;;;;;;;;;;5074511;28;20053;-60
2023/10/20 02:17:47;;;;;;;6.93;5.80;;;;;;;;;;5073303;28;20059;-60
2023/10/20 02:20:15;;;;;;;7.55;6.00;;;;;;;;;;5075356;28;20071;-60
2023/10/20 02:22:43;;;;;;;6.15;5.55;;;;;;;;;;5074303;28;20410;-59
2023/10/20 02:25:10;;;;;;;6.38;5.60;;;;;;;;;;5073828;28;20059;-60
2023/10/20 02:27:39;;;;;;;6.70;6.00;;;;;;;;;;5092628;28;20517;-60
2023/10/20 02:30:08;;;;;;;7.27;6.17;;;;;;;;;;5074318;28;20064;-59
2023/10/20 02:32:34;;;;;;;6.47;5.78;;;;;;;;;;5078039;28;20421;-59
2023/10/20 02:35:03;;;;;;;7.20;6.10;;;;;;;;;;5093753;28;20400;-60
2023/10/20 02:37:30;;;;;;;6.77;5.90;;;;;;;;;;5078195;28;20059;-60
2023/10/20 02:39:57;;;;;;;7.32;5.80;;;;;;;;;;5074204;28;20055;-60
2023/10/20 02:42:24;;;;;;;6.40;5.45;;;;;;;;;;5075736;28;20047;-60
2023/10/20 02:44:50;;;;;;;6.80;5.78;;;;;;;;;;5081436;28;20056;-59
2023/10/20 02:47:17;;;;;;;6.70;5.78;;;;;;;;;;5083015;28;20063;-60
2023/10/20 02:49:44;;;;;;;6.70;5.72;;;;;;;;;;5085429;28;20052;-61
2023/10/20 02:52:13;;;;;;;6.43;5.82;;;;;;;;;;5094071;28;20051;-60
2023/10/20 02:54:40;;;;;;;6.57;5.68;;;;;;;;;;5093667;28;20075;-60
2023/10/20 02:57:06;;;;;;;7.70;5.70;;;;;;;;;;5076137;28;20049;-60
2023/10/20 02:59:33;;;;;;;6.60;5.80;;;;;;;;;;5077363;28;20531;-59
2023/10/20 03:02:00;;;;;;;6.95;5.88;;;;;;;;;;5073279;28;20396;-60
2023/10/20 03:04:27;;;;;;;5.78;5.18;;;;;;;;;;5072980;28;20052;-60
2023/10/20 03:06:53;;;;;;;7.00;5.55;;;;;;;;;;5073324;28;20064;-60
2023/10/20 03:09:22;;;;;;;6.50;5.47;;;;;;;;;;5073709;28;20060;-60
2023/10/20 03:11:49;;;;;;;9.02;5.80;;;;;;;;;;5076033;28;20481;-60
2023/10/20 03:14:17;;;;;;;6.13;5.35;;;;;;;;;;5081139;28;20056;-60
2023/10/20 03:16:45;;;;;;;7.15;5.60;;;;;;;;;;5075890;28;20057;-60
2023/10/20 03:19:12;;;;;;;7.47;5.88;;;;;;;;;;5077395;28;20044;-60
2023/10/20 03:21:39;;;;;;;6.32;5.53;;;;;;;;;;5093430;28;20048;-59
2023/10/20 03:24:06;;;;;;;8.18;5.63;;;;;;;;;;5093519;28;20396;-60
2023/10/20 03:26:34;;;;;;;7.07;5.40;;;;;;;;;;5075048;28;20052;-60
2023/10/20 03:29:01;;;;;;;7.07;5.72;;;;;;;;;;5079503;28;20401;-59
2023/10/20 03:31:28;;;;;;;9.13;5.72;;;;;;;;;;5092261;28;20048;-60
2023/10/20 03:33:55;;;;;;;6.90;5.40;;;;;;;;;;5092752;28;20056;-59
2023/10/20 03:36:22;;;;;;;6.10;5.32;;;;;;;;;;5093471;28;20397;-60
2023/10/20 03:38:50;;;;;;;7.13;5.95;;;;;;;;;;5093014;28;20416;-60
2023/10/20 03:41:17;;;;;;;7.43;5.55;;;;;;;;;;5092936;28;20048;-60
2023/10/20 03:43:45;;;;;;;6.60;5.25;;;;;;;;;;5073687;28;20052;-60
2023/10/20 03:46:13;;;;;;;6.90;5.55;;;;;;;;;;5073192;28;20498;-60
2023/10/20 03:48:40;;;;;;;5.57;4.93;;;;;;;;;;5093205;28;20048;-60
2023/10/20 03:51:10;;;;;;;5.50;4.95;;;;;;;;;;5093032;28;20419;-60
2023/10/20 03:53:46;;;;;;;7.38;5.63;;;;;;;;;;5092660;28;20052;-61
2023/10/20 03:56:13;;;;;;;6.95;5.22;;;;;;;;;;5092512;28;20052;-60
2023/10/20 03:58:42;;;;;;;6.53;5.45;;;;;;;;;;5087710;28;20489;-60
2023/10/20 04:01:11;;;;;;;6.05;5.18;;;;;;;;;;5082763;28;20059;-60
2023/10/20 04:03:38;;;;;;;6.13;5.00;;;;;;;;;;5088703;28;20489;-60
2023/10/20 04:06:06;;;;;;;6.18;5.40;;;;;;;;;;5088661;28;20390;-60
2023/10/20 04:08:34;;;;;;;6.10;5.50;;;;;;;;;;5091816;28;20063;-60
2023/10/20 04:11:00;;;;;;;5.75;4.80;;;;;;;;;;5092360;28;20052;-60
2023/10/20 04:13:29;;;;;;;7.95;5.35;;;;;;;;;;5092016;28;20421;-60
2023/10/20 04:15:56;;;;;;;7.63;4.70;;;;;;;;;;5088205;28;20052;-60
2023/10/20 04:18:24;;;;;;;6.38;5.10;;;;;;;;;;5081645;28;20059;-60
2023/10/20 04:20:51;;;;;;;6.35;5.30;;;;;;;;;;5092355;28;20070;-60
2023/10/20 04:23:18;;;;;;;6.07;4.70;;;;;;;;;;5087908;28;20043;-62
2023/10/20 04:25:52;;;;;;;6.28;5.40;;;;;;;;;;5071775;28;20059;-60
2023/10/20 04:28:20;;;;;;;7.00;5.95;;;;;;;;;;5070761;28;20071;-60
2023/10/20 04:41:55;;;;;;;7.13;5.10;;;;;;;;;;5086012;28;20490;-60
2023/10/20 04:50:24;;;;;;;6.55;5.60;;;;;;;;;;5070787;28;20465;-60
2023/10/20 04:53:12;;;;;;;6.50;5.30;;;;;;;;;;5051572;28;20057;-61
2023/10/20 04:58:47;;;;;;;7.25;5.63;;;;;;;;;;4985177;28;20047;-61
2023/10/20 05:01:25;;;;;;;8.68;6.00;;;;;;;;;;5036565;28;20048;-60
2023/10/20 05:03:57;;;;;;;7.03;5.65;;;;;;;;;;5063483;28;20052;-60
2023/10/20 05:06:26;;;;;;;6.40;5.53;;;;;;;;;;5052471;28;20074;-61
2023/10/20 05:08:53;;;;;;;5.65;4.75;;;;;;;;;;5058798;28;20049;-60
2023/10/20 05:11:20;;;;;;;5.22;4.50;;;;;;;;;;5055941;28;20075;-61
2023/10/20 05:13:47;;;;;;;5.43;4.50;;;;;;;;;;5071571;28;20059;-60
2023/10/20 05:16:14;;;;;;;7.22;5.18;;;;;;;;;;5063094;28;20045;-60
2023/10/20 05:18:42;;;;;;;7.15;4.45;;;;;;;;;;5051443;28;20056;-60
2023/10/20 05:21:11;;;;;;;5.68;4.57;;;;;;;;;;5051108;28;20049;-60
2023/10/20 05:23:40;;;;;;;6.03;4.55;;;;;;;;;;5053070;28;20053;-60
2023/10/20 05:26:09;;;;;;;5.95;4.70;;;;;;;;;;5073563;28;20462;-60
2023/10/20 05:28:36;;;;;;;7.97;4.70;;;;;;;;;;5069537;28;20059;-60
2023/10/20 05:31:03;;;;;;;5.55;4.82;;;;;;;;;;5076631;28;20053;-60
2023/10/20 05:33:29;;;;;;;8.77;4.90;;;;;;;;;;5066061;28;20048;-60
2023/10/20 05:36:00;;;;;;;6.30;4.95;;;;;;;;;;5066683;28;20405;-60
2023/10/20 05:38:27;;;;;;;7.32;6.18;;;;;;;;;;5074734;28;20485;-61
2023/10/20 05:40:59;;;;;;;6.30;5.65;;;;;;;;;;5074707;28;20405;-60
2023/10/20 05:43:26;;;;;;;8.38;6.38;;;;;;;;;;5075187;28;20044;-60
2023/10/20 05:45:52;;;;;;;6.25;5.20;;;;;;;;;;5075582;28;20052;-61
2023/10/20 05:48:20;;;;;;;9.38;6.78;;;;;;;;;;5082615;28;20048;-60
2023/10/20 05:50:46;;;;;;;8.43;6.50;;;;;;;;;;5089510;28;20051;-60
2023/10/20 05:53:14;;;;;;;7.57;5.93;;;;;;;;;;5110728;28;20044;-60
2023/10/20 05:55:41;;;;;;;8.43;6.13;;;;;;;;;;5095160;28;20060;-60
2023/10/20 05:58:09;;;;;;;7.38;5.93;;;;;;;;;;5110673;28;20059;-60
2023/10/20 06:00:37;;;;;;;7.95;5.60;;;;;;;;;;5103880;28;20066;-60
2023/10/20 06:03:05;;;;;;;8.52;5.97;;;;;;;;;;5095934;28;20076;-60
2023/10/20 06:05:32;;;;;;;7.55;5.70;;;;;;;;;;5079364;28;20059;-60
2023/10/20 06:07:59;;;;;;;7.47;6.05;;;;;;;;;;5088327;28;20515;-61
2023/10/20 06:10:26;;;;;;;7.30;5.88;;;;;;;;;;5093483;28;20354;-61
2023/10/20 06:12:54;;;;;;;8.85;6.28;;;;;;;;;;5102813;28;20051;-61
2023/10/20 06:15:22;;;;;;;8.50;6.45;;;;;;;;;;5107833;28;20404;-61
2023/10/20 06:17:49;;;;;;;7.50;6.18;;;;;;;;;;5102779;28;20051;-61
2023/10/20 06:20:16;;;;;;;9.20;7.10;;;;;;;;;;5107602;28;20055;-61
2023/10/20 06:22:44;;;;;;;7.15;6.05;;;;;;;;;;5107477;28;20067;-61
2023/10/20 06:25:13;;;;;;;9.43;6.97;;;;;;;;;;5104189;28;20056;-61
2023/10/20 06:27:41;;;;;;;10.18;7.22;;;;;;;;;;5104731;28;20064;-61
2023/10/20 06:30:14;;;;;;;9.73;7.70;;;;;;;;;;5099470;28;20043;-62
2023/10/20 06:32:45;;;;;;;10.30;7.43;;;;;;;;;;5105761;28;20070;-61
2023/10/20 06:35:12;;;;;;;10.30;8.25;;;;;;;;;;5107779;28;20169;-61
2023/10/20 06:37:54;;;;;;;11.23;8.20;;;;;;;;;;5105553;28;20055;-61
2023/10/20 06:40:22;;;;;;;11.23;8.60;;;;;;;;;;5106619;28;20047;-61
2023/10/20 06:42:48;;;;;;;8.98;7.65;;;;;;;;;;5098223;28;20044;-61
2023/10/20 06:45:15;;;;;;;12.52;8.13;;;;;;;;;;5097661;28;20071;-61
2023/10/20 06:47:43;;;;;;;9.20;7.60;;;;;;;;;;5102430;28;20059;-61
2023/10/20 06:50:11;;;;;;;11.13;7.97;;;;;;;;;;5096130;28;20075;-61
2023/10/20 06:52:38;;;;;;;10.32;8.10;;;;;;;;;;5099178;28;20051;-62
2023/10/20 06:55:05;;;;;;;9.82;8.02;;;;;;;;;;5095793;28;20060;-61
2023/10/20 06:57:32;;;;;;;10.65;8.57;;;;;;;;;;5090158;28;20432;-61
2023/10/20 06:59:58;;;;;;;10.68;8.38;;;;;;;;;;5097329;28;20054;-61
2023/10/20 07:02:25;;;;;;;10.95;8.13;;;;;;;;;;5101579;28;20047;-60
2023/10/20 07:04:53;;;;;;;10.02;8.82;;;;;;;;;;5093529;28;20052;-61
2023/10/20 07:07:20;;;;;;;10.73;7.97;;;;;;;;;;5098227;28;20481;-61
2023/10/20 07:09:47;;;;;;;10.10;8.45;;;;;;;;;;5101452;28;20476;-61
2023/10/20 07:12:14;;;;;;;11.35;9.00;;;;;;;;;;5095133;28;20051;-61
2023/10/20 07:14:43;;;;;;;10.98;8.82;;;;;;;;;;5092152;28;20497;-61
2023/10/20 07:17:11;;;;;;;8.53;7.47;;;;;;;;;;5093291;28;20485;-61
2023/10/20 07:19:38;;;;;;;11.63;7.88;;;;;;;;;;5067935;28;20056;-61
2023/10/20 07:22:06;;;;;;;8.40;7.07;;;;;;;;;;5074652;28;20052;-62
2023/10/20 07:24:34;;;;;;;9.63;7.85;;;;;;;;;;5092886;28;20087;-61
2023/10/20 07:27:01;;;;;;;10.15;7.70;;;;;;;;;;5092031;28;20048;-61
2023/10/20 07:29:28;;;;;;;9.07;7.55;;;;;;;;;;5083517;28;20386;-60
2023/10/20 07:31:55;;;;;;;9.82;8.05;;;;;;;;;;5092317;28;20052;-60
2023/10/20 07:34:22;;;;;;;9.93;7.53;;;;;;;;;;5082193;28;20481;-60
2023/10/20 07:36:49;;;;;;;9.43;7.28;;;;;;;;;;5082756;28;20063;-60
2023/10/20 07:39:18;;;;;;;9.15;7.35;;;;;;;;;;5092815;28;20047;-61
2023/10/20 07:41:45;;;;;;;10.43;7.82;;;;;;;;;;5096135;28;20052;-60
2023/10/20 07:44:12;;;;;;;8.35;6.75;;;;;;;;;;5091452;28;20047;-60
2023/10/20 07:46:40;;;;;;;7.55;6.45;;;;;;;;;;5099628;28;20065;-61
2023/10/20 07:49:08;;;;;;;10.05;6.68;;;;;;;;;;5109031;27;20052;-61
2023/10/20 07:51:35;;;;;;;9.48;6.95;;;;;;;;;;5107016;27;20400;-61
2023/10/20 07:54:03;;;;;;;8.90;6.80;;;;;;;;;;5101860;28;20063;-60
2023/10/20 07:56:31;;;;;;;7.28;6.57;;;;;;;;;;5106480;27;20043;-60
2023/10/20 07:58:58;;;;;;;7.20;6.20;;;;;;;;;;5100483;28;20054;-60
2023/10/20 08:01:25;;;;;;;9.52;6.85;;;;;;;;;;5106744;27;20066;-60
2023/10/20 08:03:52;;;;;;;7.82;6.10;;;;;;;;;;5116107;27;20404;-60
2023/10/20 08:06:19;;;;;;;8.95;6.45;;;;;;;;;;5112137;27;20074;-61
2023/10/20 08:08:46;;;;;;;8.45;6.38;;;;;;;;;;5109132;28;20129;-61
2023/10/20 08:11:13;;;;;;;7.60;6.20;;;;;;;;;;5109494;27;20480;-61
2023/10/20 08:13:41;;;;;;;8.30;5.75;;;;;;;;;;5107112;27;20067;-60
2023/10/20 08:16:08;;;;;;;7.20;6.13;;;;;;;;;;5111476;28;20052;-61
2023/10/20 08:18:35;;;;;;;7.60;6.78;;;;;;;;;;5108051;27;20055;-60
2023/10/20 08:21:05;;;;;;;6.28;4.97;;;;;;;;;;5108801;28;20409;-60
2023/10/20 08:23:32;;;;;;;7.90;6.28;;;;;;;;;;5099743;28;20052;-60
2023/10/20 08:25:59;;;;;;;7.10;5.43;;;;;;;;;;5108667;28;20115;-61
2023/10/20 08:28:26;;;;;;;6.03;5.28;;;;;;;;;;5106512;28;20062;-60
2023/10/20 08:31:03;;;;;;;6.00;5.13;;;;;;;;;;5111109;28;20051;-60
2023/10/20 08:33:30;;;;;;;6.25;5.60;;;;;;;;;;5107116;28;20063;-60
2023/10/20 08:35:57;;;;;;;6.25;5.10;;;;;;;;;;5116736;28;20139;-61
2023/10/20 08:38:24;;;;;;;6.65;5.57;;;;;;;;;;5105371;28;20073;-61
2023/10/20 08:40:51;;;;;;;6.95;5.68;;;;;;;;;;5110886;28;20056;-60
2023/10/20 08:43:18;;;;;;;7.43;5.60;;;;;;;;;;5105909;28;20059;-61
2023/10/20 08:45:45;;;;;;;6.70;5.53;;;;;;;;;;5093940;28;20060;-61
2023/10/20 08:48:15;;;;;;;6.43;5.10;;;;;;;;;;5108539;28;20051;-61
2023/10/20 08:50:42;;;;;;;5.28;4.50;;;;;;;;;;5112383;28;20048;-62
2023/10/20 08:53:12;;;;;;;6.20;4.78;;;;;;;;;;5103384;28;20040;-61
2023/10/20 08:55:38;;;;;;;;;;;;;;;;;;5103782;28;20048;-60
2023/10/20 08:58:06;;;;;;;6.63;5.15;;;;;;;;;;5114785;28;20364;-61
2023/10/20 09:00:33;;;;;;;5.90;4.55;;;;;;;;;;5103617;28;20059;-61
2023/10/20 09:03:00;;;;;;;5.55;4.35;;;;;;;;;;5106446;27;20050;-61
2023/10/20 09:05:29;;;;;;;5.53;4.50;;;;;;;;;;5115636;27;20070;-61
2023/10/20 09:07:56;;;;;;;5.57;4.97;;;;;;;;;;5106541;28;20338;-61
2023/10/20 09:10:23;;;;;;;5.30;4.13;;;;;;;;;;5113331;27;20500;-61
2023/10/20 09:12:50;;;;;;;5.97;4.47;;;;;;;;;;5098536;27;20052;-61
2023/10/20 09:15:16;;;;;;;4.60;4.10;;;;;;;;;;5105484;27;20044;-61
2023/10/20 09:17:44;;;;;;;5.80;4.43;;;;;;;;;;5110327;27;20059;-61
2023/10/20 09:20:14;;;;;;;4.82;4.25;;;;;;;;;;5112853;27;20058;-61
2023/10/20 09:22:42;;;;;;;4.43;4.00;;;;;;;;;;5111288;27;20416;-61
2023/10/20 09:25:10;;;;;;;4.45;4.05;;;;;;;;;;5114002;28;20052;-61
2023/10/20 09:27:37;;;;;;;4.18;3.72;;;;;;;;;;5110067;27;20047;-61
2023/10/20 09:30:08;;;;;;;5.00;3.90;;;;;;;;;;5104809;27;20402;-61
2023/10/20 09:32:35;;;;;;;4.75;3.92;;;;;;;;;;5115025;27;20060;-60
2023/10/20 09:35:02;;;;;;;4.03;3.55;;;;;;;;;;5115146;27;20047;-60
2023/10/20 09:37:30;;;;;;;4.45;3.58;;;;;;;;;;5105447;27;20047;-61
2023/10/20 09:40:02;;;;;;;4.30;3.63;;;;;;;;;;5106772;28;20469;-61
2023/10/20 09:42:29;;;;;;;4.28;3.55;;;;;;;;;;5112158;27;20050;-60
2023/10/20 09:44:59;;;;;;;4.55;3.28;;;;;;;;;;5115255;27;20050;-60
2023/10/20 09:47:28;;;;;;;3.90;3.50;;;;;;;;;;5104669;27;20048;-61
2023/10/20 09:49:55;;;;;;;4.65;3.80;;;;;;;;;;5112814;27;20456;-61
2023/10/20 09:52:22;;;;;;;4.15;3.25;;;;;;;;;;5113482;27;20043;-60
2023/10/20 09:54:51;;;;;;;3.97;2.92;;;;;;;;;;5113343;27;20412;-60
2023/10/20 09:57:19;;;;;;;3.83;3.42;;;;;;;;;;5115027;27;20047;-60
2023/10/20 09:59:51;;;;;;;3.85;3.30;;;;;;;;;;5107258;27;20055;-61
2023/10/20 10:02:26;;;;;;;4.15;3.60;;;;;;;;;;5096633;27;20063;-60
2023/10/20 10:04:54;;;;;;;4.38;3.60;;;;;;;;;;5098107;27;20055;-60
2023/10/20 10:07:27;;;;;;;4.97;3.38;;;;;;;;;;5101443;27;20044;-61
2023/10/20 10:09:55;;;;;;;4.00;2.95;;;;;;;;;;5107505;27;20056;-60
2023/10/20 10:12:24;;;;;;;6.15;4.32;;;;;;;;;;5095571;27;20048;-60
2023/10/20 10:14:54;;;;;;;7.25;3.30;;;;;;;;;;5113572;27;20393;-60
2023/10/20 10:17:22;;;;;;;4.80;3.30;;;;;;;;;;5105274;27;20424;-61
2023/10/20 10:19:50;;;;;;;3.38;2.95;;;;;;;;;;5109949;27;20052;-60
2023/10/20 10:22:17;;;;;;;4.50;3.17;;;;;;;;;;5107351;28;20058;-60
2023/10/20 10:24:49;;;;;;;4.22;3.40;;;;;;;;;;5095376;28;20054;-60
2023/10/20 10:27:17;;;;;;;3.90;3.13;;;;;;;;;;5102982;27;20044;-61
2023/10/20 10:29:50;;;;;;;4.95;3.20;;;;;;;;;;5114058;28;20051;-60
2023/10/20 10:32:18;;;;;;;3.42;2.83;;;;;;;;;;5110200;27;20047;-60
2023/10/20 10:34:45;;;;;;;3.33;2.75;;;;;;;;;;5101171;27;20048;-60
2023/10/20 10:37:12;;;;;;;6.00;3.30;;;;;;;;;;5110723;27;20062;-61
2023/10/20 10:39:40;;;;;;;5.30;3.63;;;;;;;;;;5106164;27;20523;-60
2023/10/20 10:42:07;;;;;;;4.22;3.30;;;;;;;;;;5103154;27;20472;-61
2023/10/20 10:44:35;;;;;;;3.88;3.15;;;;;;;;;;5098650;27;20055;-60
2023/10/20 10:47:04;;;;;;;3.83;3.17;;;;;;;;;;5102681;28;20075;-60
2023/10/20 10:49:31;;;;;;;4.97;3.63;;;;;;;;;;5102885;27;20497;-61
2023/10/20 10:51:58;;;;;;;5.15;2.95;;;;;;;;;;5106119;27;20052;-61
2023/10/20 10:54:26;;;;;;;3.83;3.00;;;;;;;;;;5109672;27;20048;-61
2023/10/20 10:56:53;;;;;;;3.72;2.90;;;;;;;;;;5109745;27;20070;-60
2023/10/20 10:59:20;;;;;;;3.67;3.10;;;;;;;;;;5108461;27;20051;-60
2023/10/20 11:01:47;;;;;;;3.45;2.60;;;;;;;;;;5103212;27;20058;-61
2023/10/20 11:04:15;;;;;;;3.75;3.30;;;;;;;;;;5109530;28;20055;-60
2023/10/20 11:06:43;;;;;;;3.20;2.88;;;;;;;;;;5104470;27;20052;-60
2023/10/20 11:09:11;;;;;;;4.43;3.30;;;;;;;;;;5105237;27;20056;-61
2023/10/20 11:11:38;;;;;;;2.85;2.40;;;;;;;;;;5112139;27;20055;-60
2023/10/20 11:14:05;;;;;;;4.13;2.70;;;;;;;;;;5112442;27;20064;-60
2023/10/20 11:16:34;;;;;;;2.88;2.38;;;;;;;;;;5103035;27;20056;-61
2023/10/20 11:19:01;;;;;;;3.20;2.70;;;;;;;;;;5099790;27;20520;-61
2023/10/20 11:21:29;;;;;;;3.85;3.25;;;;;;;;;;5114796;27;20401;-61
2023/10/20 11:23:57;;;;;;;4.15;2.72;;;;;;;;;;5103804;27;20043;-61
2023/10/20 11:26:24;;;;;;;2.90;2.30;;;;;;;;;;5109195;27;20051;-60
2023/10/20 11:28:51;;;;;;;3.53;2.50;;;;;;;;;;5110767;28;20058;-60
2023/10/20 11:31:19;;;;;;;3.80;2.38;;;;;;;;;;5098104;28;20052;-60
2023/10/20 11:33:45;;;;;;;3.88;2.63;;;;;;;;;;5096915;28;20056;-61
2023/10/20 11:36:12;;;;;;;2.83;2.53;;;;;;;;;;5108641;27;20055;-61
2023/10/20 11:38:40;;;;;;;3.53;2.75;;;;;;;;;;5110228;27;20400;-61
2023/10/20 11:41:07;;;;;;;3.40;2.40;;;;;;;;;;5110172;27;20522;-61
2023/10/20 11:43:36;;;;;;;3.08;2.40;;;;;;;;;;5108002;28;20055;-61
2023/10/20 11:46:03;;;;;;;3.10;2.40;;;;;;;;;;5106846;27;20043;-61
2023/10/20 11:48:29;;;;;;;3.72;2.30;;;;;;;;;;5109319;27;20056;-61
2023/10/20 11:50:57;;;;;;;2.92;2.38;;;;;;;;;;5109172;28;20043;-61
2023/10/20 11:53:24;;;;;;;3.05;2.10;;;;;;;;;;5112385;28;20048;-61
2023/10/20 11:55:52;;;;;;;2.50;1.98;;;;;;;;;;5105563;28;20047;-61
2023/10/20 11:58:19;;;;;;;2.63;1.90;;;;;;;;;;5107357;27;20050;-61
2023/10/20 12:00:46;;;;;;;2.50;2.13;;;;;;;;;;5107956;28;20515;-61
2023/10/20 12:03:13;;;;;;;3.20;2.15;;;;;;;;;;5107184;28;20051;-62
2023/10/20 12:05:40;;;;;;;3.65;2.30;;;;;;;;;;5101190;27;20048;-61
2023/10/20 12:08:06;;;;;;;2.20;1.90;;;;;;;;;;5092404;28;20044;-61
2023/10/20 12:10:33;;;;;;;3.30;2.53;;;;;;;;;;5109759;28;20464;-61
2023/10/20 12:13:04;;;;;;;3.33;2.28;;;;;;;;;;5110530;27;20051;-61
2023/10/20 12:15:31;;;;;;;2.78;2.10;;;;;;;;;;5100995;28;20063;-61
2023/10/20 12:17:58;;;;;;;2.90;2.22;;;;;;;;;;5103382;27;20055;-61
2023/10/20 12:20:25;;;;;;;3.03;2.20;;;;;;;;;;5110922;27;20048;-62
2023/10/20 12:22:55;;;;;;;3.53;2.38;;;;;;;;;;5103535;27;20456;-61
2023/10/20 12:25:21;;;;;;;;;;;;;;;;;;5103703;28;20043;-61
2023/10/20 12:27:48;;;;;;;26.35;17.23;;;;;;;;;;5103985;28;19927;-62
2023/10/20 12:30:16;;;;;;;7.90;6.65;;;;;;;;;;5105343;28;20044;-61
2023/10/20 12:32:43;;;;;;;9.60;8.70;;;;;;;;;;5103781;28;20047;-61
2023/10/20 12:35:11;;;;;;;5.22;4.57;;;;;;;;;;5104057;28;20044;-61
2023/10/20 12:37:38;;;;;;;8.55;7.60;;;;;;;;;;5107295;28;20058;-63
2023/10/20 12:40:05;;;;;;;24.13;19.98;;;;;;;;;;5107684;28;20389;-61
2023/10/20 12:42:32;;;;;;;53.38;35.90;;;;;;;;;;5116562;27;20504;-61
2023/10/20 12:45:00;;;;;;;18.13;12.55;;;;;;;;;;5107912;27;20070;-61
2023/10/20 12:47:28;;;;;;;23.98;15.98;;;;;;;;;;5101980;27;20060;-61
2023/10/20 12:49:55;;;;;;;14.88;10.35;;;;;;;;;;5109151;28;20055;-61
2023/10/20 12:52:22;;;;;;;30.27;20.52;;;;;;;;;;5110662;27;20048;-61
2023/10/20 12:54:50;;;;;;;23.33;16.13;;;;;;;;;;5109321;27;20059;-61
2023/10/20 12:57:17;;;;;;;48.55;28.17;;;;;;;;;;5113626;28;20048;-61
2023/10/20 12:59:44;;;;;;;86.25;46.13;;;;;;;;;;5107301;28;20051;-61
2023/10/20 13:02:13;;;;;;;93.85;52.55;;;;;;;;;;5101815;27;20055;-60
2023/10/20 13:04:41;;;;;;;13.52;9.13;;;;;;;;;;5106074;27;20059;-60
2023/10/20 13:07:08;;;;;;;44.67;27.95;;;;;;;;;;5110762;27;20074;-59
2023/10/20 13:09:35;;;;;;;79.43;45.20;;;;;;;;;;5103403;27;20066;-60
2023/10/20 13:12:02;;;;;;;8.70;7.80;;;;;;;;;;5109113;28;20056;-60
2023/10/20 13:14:29;;;;;;;6.47;5.40;;;;;;;;;;5113975;28;20048;-61
2023/10/20 13:16:56;;;;;;;7.55;5.82;;;;;;;;;;5101996;27;20051;-60
2023/10/20 13:19:23;;;;;;;9.20;4.78;;;;;;;;;;5111467;28;20047;-61
2023/10/20 13:21:52;;;;;;;3.38;3.08;;;;;;;;;;5111850;28;20059;-61
2023/10/20 13:24:19;;;;;;;4.32;3.08;;;;;;;;;;5100371;27;20052;-60
2023/10/20 13:26:46;;;;;;;4.05;3.35;;;;;;;;;;5106583;28;20047;-61
2023/10/20 13:29:12;;;;;;;3.55;2.70;;;;;;;;;;5112659;27;20048;-62
2023/10/20 13:31:39;;;;;;;4.30;3.40;;;;;;;;;;5111452;27;20055;-61
2023/10/20 13:34:06;;;;;;;3.97;3.13;;;;;;;;;;5115659;27;20499;-61
2023/10/20 13:36:34;;;;;;;3.90;2.90;;;;;;;;;;5107808;27;20048;-62
2023/10/20 13:39:02;;;;;;;3.88;2.92;;;;;;;;;;5102731;27;20048;-61
2023/10/20 13:41:29;;;;;;;3.13;2.57;;;;;;;;;;5112539;27;20051;-61
2023/10/20 13:43:56;;;;;;;3.97;2.92;;;;;;;;;;5112823;27;20499;-62
2023/10/20 13:46:23;;;;;;;4.32;2.90;;;;;;;;;;5101150;28;20052;-62
2023/10/20 13:48:49;;;;;;;3.13;2.58;;;;;;;;;;5104172;27;20048;-61
2023/10/20 13:51:16;;;;;;;3.63;2.70;;;;;;;;;;5103919;27;20504;-61
2023/10/20 13:53:43;;;;;;;3.35;2.83;;;;;;;;;;5105317;27;20052;-61
2023/10/20 13:56:11;;;;;;;3.88;2.70;;;;;;;;;;5103736;27;20047;-61
2023/10/20 13:58:39;;;;;;;6.30;3.67;;;;;;;;;;5114230;28;20055;-61
2023/10/20 14:01:06;;;;;;;4.43;3.58;;;;;;;;;;5105417;27;20409;-61
2023/10/20 14:03:33;;;;;;;5.63;3.95;;;;;;;;;;5112569;28;20055;-61
2023/10/20 14:06:00;;;;;;;6.07;4.22;;;;;;;;;;5108326;27;20055;-61
2023/10/20 14:08:26;;;;;;;4.97;3.63;;;;;;;;;;5112448;27;20046;-60
2023/10/20 14:10:55;;;;;;;6.20;4.50;;;;;;;;;;5104277;27;20118;-61
2023/10/20 14:13:23;;;;;;;4.88;4.38;;;;;;;;;;5106588;27;20060;-60
2023/10/20 14:15:50;;;;;;;4.95;3.88;;;;;;;;;;5103237;27;20051;-61
2023/10/20 14:18:17;;;;;;;5.88;4.10;;;;;;;;;;5106446;27;20059;-61
2023/10/20 14:20:44;;;;;;;4.80;3.90;;;;;;;;;;5105551;27;20052;-62
2023/10/20 14:23:10;;;;;;;4.53;3.83;;;;;;;;;;5102843;28;20055;-61
2023/10/20 14:25:37;;;;;;;7.85;6.00;;;;;;;;;;5106451;27;20492;-61
2023/10/20 14:28:05;;;;;;;7.43;6.05;;;;;;;;;;5103890;27;20043;-61
2023/10/20 14:30:33;;;;;;;6.72;5.03;;;;;;;;;;5114886;27;20055;-61
2023/10/20 14:33:00;;;;;;;5.63;4.40;;;;;;;;;;5109851;27;20403;-61
2023/10/20 14:35:27;;;;;;;7.07;5.70;;;;;;;;;;5100585;27;20059;-61
2023/10/20 14:37:53;;;;;;;6.65;5.90;;;;;;;;;;5111270;27;20055;-61
2023/10/20 14:40:20;;;;;;;6.25;5.28;;;;;;;;;;5103937;28;20353;-61
2023/10/20 14:42:47;;;;;;;7.28;5.75;;;;;;;;;;5099553;27;20051;-61
2023/10/20 14:45:14;;;;;;;4.20;3.58;;;;;;;;;;5107739;27;20059;-62
2023/10/20 14:47:43;;;;;;;5.18;3.80;;;;;;;;;;5098483;28;20407;-61
2023/10/20 14:50:10;;;;;;;3.90;3.15;;;;;;;;;;5110019;27;20054;-62
2023/10/20 14:52:37;;;;;;;4.53;3.10;;;;;;;;;;5106199;27;20056;-61
2023/10/20 14:55:04;;;;;;;3.78;2.70;;;;;;;;;;5099829;27;20040;-63
2023/10/20 14:57:31;;;;;;;6.20;2.53;;;;;;;;;;5103803;28;20052;-63
2023/10/20 14:59:58;;;;;;;2.83;2.30;;;;;;;;;;5112917;27;20473;-63
2023/10/20 15:02:25;;;;;;;3.72;2.58;;;;;;;;;;5098733;27;20417;-61